createdAt,value
2019-02-21T00:02:16.238Z,14.23
2019-02-21T00:04:45.002Z,15.10
2019-02-21T00:07:13.509Z,15.80
2019-02-21T00:09:41.960Z,16.33
2019-02-21T00:12:10.415Z,14.83
2019-02-21T00:14:38.905Z,15.03
2019-02-21T00:17:07.386Z,14.73
2019-02-21T00:19:35.849Z,15.23
2019-02-21T00:22:04.346Z,15.50
2019-02-21T00:24:32.800Z,16.43
2019-02-21T00:27:01.264Z,16.20
2019-02-21T00:29:29.772Z,15.30
2019-02-21T00:31:58.221Z,16.90
2019-02-21T00:34:26.693Z,14.53
2019-02-21T00:36:55.176Z,16.03
2019-02-21T00:39:23.628Z,17.97
2019-02-21T00:41:52.087Z,15.10
2019-02-21T00:44:20.583Z,15.10
2019-02-21T00:46:49.054Z,16.70
2019-02-21T00:49:17.523Z,17.00
2019-02-21T00:51:46.040Z,15.83
2019-02-21T00:54:14.506Z,16.23
2019-02-21T00:56:42.966Z,15.83
2019-02-21T00:59:11.455Z,15.07
2019-02-21T01:01:39.911Z,16.47
2019-02-21T01:04:08.367Z,16.00
2019-02-21T01:06:38.000Z,16.07
2019-02-21T01:09:06.468Z,14.70
2019-02-21T01:11:34.935Z,15.33
2019-02-21T01:14:03.449Z,16.97
2019-02-21T01:16:31.898Z,16.90
2019-02-21T01:19:00.371Z,14.80
2019-02-21T01:21:28.880Z,15.50
2019-02-21T01:23:57.339Z,15.77
2019-02-21T01:26:25.804Z,15.47
2019-02-21T01:28:54.348Z,14.67
2019-02-21T01:31:22.816Z,13.63
2019-02-21T01:33:51.299Z,14.97
2019-02-21T01:36:19.807Z,14.20
2019-02-21T01:38:48.260Z,16.10
2019-02-21T01:41:16.809Z,14.93
2019-02-21T01:43:45.310Z,15.80
2019-02-21T01:46:13.785Z,15.30
2019-02-21T01:48:42.234Z,14.87
2019-02-21T01:51:10.746Z,14.70
2019-02-21T01:53:39.203Z,16.97
2019-02-21T01:56:07.663Z,17.03
2019-02-21T01:58:36.178Z,15.90
2019-02-21T02:01:08.538Z,16.40
2019-02-21T02:03:34.899Z,16.03
2019-02-21T02:06:03.415Z,18.33
2019-02-21T02:08:32.388Z,16.57
2019-02-21T02:11:00.849Z,16.77
2019-02-21T02:13:29.347Z,18.20
2019-02-21T02:15:57.813Z,19.10
2019-02-21T02:18:26.266Z,19.60
2019-02-21T02:20:54.766Z,18.83
2019-02-21T02:23:23.245Z,17.90
2019-02-21T02:25:51.694Z,18.63
2019-02-21T02:28:20.208Z,18.77
2019-02-21T02:30:48.669Z,18.97
2019-02-21T02:33:17.130Z,20.83
2019-02-21T02:35:45.659Z,20.03
2019-02-21T02:38:14.118Z,19.73
2019-02-21T02:40:42.598Z,18.27
2019-02-21T02:43:11.212Z,20.70
2019-02-21T02:45:39.658Z,21.30
2019-02-21T02:48:08.115Z,21.53
2019-02-21T02:50:36.632Z,23.20
2019-02-21T02:53:05.309Z,24.20
2019-02-21T02:55:33.778Z,21.13
2019-02-21T02:58:02.291Z,22.10
2019-02-21T03:00:30.756Z,21.47
2019-02-21T03:02:59.236Z,22.63
2019-02-21T03:05:27.744Z,22.53
2019-02-21T03:07:56.207Z,21.60
2019-02-21T03:10:25.737Z,22.43
2019-02-21T03:12:54.252Z,24.30
2019-02-21T03:15:22.720Z,21.10
2019-02-21T03:17:51.181Z,23.20
2019-02-21T03:20:19.691Z,22.47
2019-02-21T03:22:48.157Z,22.20
2019-02-21T03:25:16.620Z,22.57
2019-02-21T03:27:45.106Z,22.93
2019-02-21T03:30:13.708Z,24.47
2019-02-21T03:32:42.197Z,21.07
2019-02-21T03:35:10.795Z,20.40
2019-02-21T03:37:39.239Z,23.67
2019-02-21T03:40:09.594Z,22.83
2019-02-21T03:42:38.163Z,23.97
2019-02-21T03:45:09.850Z,23.83
2019-02-21T03:47:38.301Z,23.60
2019-02-21T03:50:09.759Z,24.67
2019-02-21T03:52:38.204Z,22.37
2019-02-21T03:55:08.111Z,23.80
2019-02-21T03:57:36.676Z,23.67
2019-02-21T04:00:07.868Z,23.77
2019-02-21T04:02:36.332Z,25.50
2019-02-21T04:05:06.174Z,24.40
2019-02-21T04:07:34.646Z,22.10
2019-02-21T04:10:03.994Z,22.30
2019-02-21T04:12:32.612Z,24.03
2019-02-21T04:15:01.079Z,23.20
2019-02-21T04:17:29.553Z,23.73
2019-02-21T04:19:58.053Z,23.07
2019-02-21T04:22:26.530Z,23.33
2019-02-21T04:24:54.986Z,24.13
2019-02-21T04:27:23.593Z,25.90
2019-02-21T04:29:52.058Z,23.80
2019-02-21T04:32:20.524Z,24.90
2019-02-21T04:34:49.021Z,25.73
2019-02-21T04:37:20.188Z,24.40
2019-02-21T04:39:48.641Z,25.03
2019-02-21T04:42:17.167Z,23.03
2019-02-21T04:44:45.618Z,25.40
2019-02-21T04:47:14.096Z,27.23
2019-02-21T04:49:42.577Z,25.50
2019-02-21T04:52:11.036Z,26.80
2019-02-21T04:54:39.500Z,25.00
2019-02-21T04:57:08.661Z,27.40
2019-02-21T04:59:39.441Z,26.10
2019-02-21T05:02:07.898Z,27.57
2019-02-21T05:04:36.409Z,25.20
2019-02-21T05:07:04.875Z,28.60
2019-02-21T05:09:33.348Z,27.60
2019-02-21T05:12:01.882Z,29.47
2019-02-21T05:14:30.606Z,29.47
2019-02-21T05:17:00.667Z,30.70
2019-02-21T05:19:29.353Z,27.03
2019-02-21T05:21:57.821Z,29.03
2019-02-21T05:24:26.292Z,30.90
2019-02-21T05:26:56.419Z,30.70
2019-02-21T05:29:24.896Z,30.40
2019-02-21T05:31:57.653Z,30.33
2019-02-21T05:34:43.034Z,30.37
2019-02-21T05:37:31.181Z,31.70
2019-02-21T05:40:10.043Z,31.07
2019-02-21T05:42:42.921Z,31.17
2019-02-21T05:45:15.501Z,30.13
2019-02-21T05:47:48.057Z,32.00
2019-02-21T05:50:30.057Z,32.47
2019-02-21T05:53:16.056Z,31.90
2019-02-21T05:56:02.325Z,31.80
2019-02-21T05:58:35.085Z,31.20
2019-02-21T06:01:07.932Z,29.80
2019-02-21T06:03:44.075Z,33.00
2019-02-21T06:06:17.124Z,32.27
2019-02-21T06:08:51.710Z,31.70
2019-02-21T06:11:21.829Z,34.33
2019-02-21T06:13:53.738Z,31.20
2019-02-21T06:16:33.130Z,32.90
2019-02-21T06:19:10.713Z,33.97
2019-02-21T06:21:47.854Z,34.90
2019-02-21T06:24:20.636Z,32.00
2019-02-21T06:26:50.789Z,32.50
2019-02-21T06:29:22.563Z,34.87
2019-02-21T06:31:51.221Z,33.70
2019-02-21T06:34:22.839Z,33.70
2019-02-21T06:36:51.385Z,34.57
2019-02-21T06:39:19.850Z,32.93
2019-02-21T06:41:58.699Z,33.37
2019-02-21T06:44:18.563Z,33.93
2019-02-21T06:46:47.042Z,34.90
2019-02-21T06:49:15.555Z,33.20
2019-02-21T06:51:44.033Z,33.87
2019-02-21T06:54:12.498Z,35.27
2019-02-21T06:56:41.054Z,32.30
2019-02-21T06:59:13.534Z,36.47
2019-02-21T07:01:40.796Z,35.60
2019-02-21T07:04:09.284Z,35.60
2019-02-21T07:06:39.294Z,35.50
2019-02-21T07:09:07.911Z,36.23
2019-02-21T07:11:36.405Z,36.63
2019-02-21T07:14:04.877Z,34.97
2019-02-21T07:16:33.329Z,35.50
2019-02-21T07:19:02.320Z,35.67
2019-02-21T07:21:30.799Z,37.20
2019-02-21T07:24:07.918Z,35.97
2019-02-21T07:26:36.419Z,34.20
2019-02-21T07:29:04.877Z,35.90
2019-02-21T07:31:33.332Z,33.27
2019-02-21T07:34:02.081Z,35.33
2019-02-21T07:36:30.548Z,34.43
2019-02-21T07:39:13.837Z,34.10
2019-02-21T07:41:29.221Z,32.37
2019-02-21T07:43:57.684Z,35.53
2019-02-21T07:46:26.417Z,38.07
2019-02-21T07:48:54.918Z,36.50
2019-02-21T07:51:23.379Z,34.53
2019-02-21T07:53:51.835Z,35.93
2019-02-21T07:56:20.337Z,33.97
2019-02-21T07:58:48.790Z,32.50
2019-02-21T08:01:17.662Z,35.50
2019-02-21T08:03:48.551Z,36.60
2019-02-21T08:06:16.431Z,37.37
2019-02-21T08:08:45.184Z,37.77
2019-02-21T08:11:13.761Z,35.37
2019-02-21T08:13:42.290Z,35.90
2019-02-21T08:16:12.475Z,38.20
2019-02-21T08:18:41.126Z,33.00
2019-02-21T08:21:10.697Z,35.90
2019-02-21T08:23:49.665Z,32.30
2019-02-21T08:26:09.441Z,36.50
2019-02-21T08:28:37.922Z,37.77
2019-02-21T08:31:06.449Z,37.50
2019-02-21T08:33:42.152Z,36.10
2019-02-21T08:36:10.613Z,36.90
2019-02-21T08:38:39.076Z,38.27
2019-02-21T08:41:07.576Z,33.20
2019-02-21T08:43:37.284Z,36.47
2019-02-21T08:46:05.909Z,32.10
2019-02-21T08:48:34.439Z,33.70
2019-02-21T08:51:02.940Z,32.03
2019-02-21T08:53:31.414Z,34.90
2019-02-21T08:56:00.056Z,33.83
2019-02-21T08:58:28.524Z,34.17
2019-02-21T09:00:57.008Z,31.97
2019-02-21T09:03:25.517Z,32.30
2019-02-21T09:05:53.969Z,35.40
2019-02-21T09:08:32.762Z,32.40
2019-02-21T09:10:52.658Z,36.57
2019-02-21T09:13:23.740Z,32.67
2019-02-21T09:15:51.512Z,31.57
2019-02-21T09:18:20.030Z,36.60
2019-02-21T09:20:48.491Z,33.43
2019-02-21T09:23:17.090Z,34.27
2019-02-21T09:25:45.584Z,34.57
2019-02-21T09:28:15.789Z,32.43
2019-02-21T09:30:44.231Z,34.70
2019-02-21T09:33:17.420Z,31.50
2019-02-21T09:35:42.908Z,32.70
2019-02-21T09:38:13.156Z,27.60
2019-02-21T09:40:42.799Z,29.87
2019-02-21T09:43:11.536Z,29.20
2019-02-21T09:45:42.190Z,29.57
2019-02-21T09:48:12.015Z,31.77
2019-02-21T09:50:40.388Z,33.83
2019-02-21T09:53:08.838Z,35.73
2019-02-21T09:55:37.395Z,31.47
2019-02-21T09:58:05.869Z,33.60
2019-02-21T10:00:35.961Z,30.83
2019-02-21T10:03:04.614Z,31.60
2019-02-21T10:05:33.072Z,34.53
2019-02-21T10:08:01.552Z,27.83
2019-02-21T10:10:30.053Z,34.53
2019-02-21T10:12:58.519Z,31.33
2019-02-21T10:15:26.992Z,30.20
2019-02-21T10:17:55.495Z,33.20
2019-02-21T10:20:23.965Z,31.57
2019-02-21T10:22:52.429Z,30.20
2019-02-21T10:25:24.974Z,30.40
2019-02-21T10:27:53.439Z,30.80
2019-02-21T10:30:23.360Z,31.13
2019-02-21T10:32:51.857Z,28.90
2019-02-21T10:35:20.398Z,30.57
2019-02-21T10:37:48.888Z,30.93
2019-02-21T10:40:17.989Z,28.90
2019-02-21T10:42:46.468Z,25.80
2019-02-21T10:45:16.762Z,28.73
2019-02-21T10:47:45.351Z,30.10
2019-02-21T10:50:17.001Z,30.10
2019-02-21T10:52:45.470Z,29.27
2019-02-21T10:55:14.159Z,27.10
2019-02-21T10:57:45.189Z,27.60
2019-02-21T11:00:18.690Z,28.80
2019-02-21T11:02:47.160Z,26.40
2019-02-21T11:05:15.645Z,25.70
2019-02-21T11:07:44.143Z,24.57
2019-02-21T11:10:19.219Z,29.27
2019-02-21T11:12:47.871Z,26.37
2019-02-21T11:15:21.368Z,28.93
2019-02-21T11:17:49.844Z,27.40
2019-02-21T11:20:19.248Z,27.33
2019-02-21T11:22:47.760Z,26.03
2019-02-21T11:25:16.215Z,27.90
2019-02-21T11:27:45.714Z,25.87
2019-02-21T11:30:16.529Z,27.63
2019-02-21T11:32:45.011Z,26.60
2019-02-21T11:35:13.951Z,26.60
2019-02-21T11:37:46.604Z,25.40
2019-02-21T11:40:17.156Z,25.30
2019-02-21T11:42:46.355Z,25.47
2019-02-21T11:45:18.360Z,27.20
2019-02-21T11:47:48.369Z,26.00
2019-02-21T11:50:18.289Z,24.67
2019-02-21T11:52:46.859Z,26.43
2019-02-21T11:55:23.615Z,27.27
2019-02-21T11:57:52.100Z,26.80
2019-02-21T12:00:23.280Z,25.90
2019-02-21T12:02:51.778Z,26.13
2019-02-21T12:05:30.370Z,27.40
2019-02-21T12:07:50.553Z,26.90
2019-02-21T12:10:19.093Z,25.53
2019-02-21T12:12:47.579Z,27.03
2019-02-21T12:15:16.707Z,25.57
2019-02-21T12:17:45.182Z,26.43
2019-02-21T12:20:15.434Z,25.30
2019-02-21T12:22:43.960Z,24.30
2019-02-21T12:25:17.422Z,22.83
2019-02-21T12:27:45.890Z,23.70
2019-02-21T12:30:17.365Z,22.40
2019-02-21T12:32:45.961Z,27.30
2019-02-21T12:35:14.598Z,25.70
2019-02-21T12:37:43.109Z,24.27
2019-02-21T12:40:14.295Z,25.47
2019-02-21T12:42:42.733Z,24.90
2019-02-21T12:45:16.740Z,22.97
2019-02-21T12:47:50.785Z,25.53
2019-02-21T12:50:15.542Z,23.93
2019-02-21T12:52:44.099Z,26.60
2019-02-21T12:55:12.760Z,24.40
2019-02-21T12:57:41.231Z,26.00
2019-02-21T13:00:12.510Z,23.80
2019-02-21T13:02:41.000Z,26.10
2019-02-21T13:05:09.480Z,25.17
2019-02-21T13:07:38.021Z,24.67
2019-02-21T13:10:12.095Z,28.03
2019-02-21T13:12:40.583Z,26.60
2019-02-21T13:15:11.528Z,23.47
2019-02-21T13:17:40.032Z,24.33
2019-02-21T13:20:11.288Z,26.47
2019-02-21T13:22:41.357Z,29.37
2019-02-21T13:25:15.165Z,25.83
2019-02-21T13:27:43.672Z,28.40
2019-02-21T13:30:16.733Z,25.97
2019-02-21T13:32:45.932Z,24.70
2019-02-21T13:35:14.554Z,24.77
2019-02-21T13:37:43.068Z,25.27
2019-02-21T13:40:14.480Z,27.30
2019-02-21T13:42:42.958Z,25.17
2019-02-21T13:45:13.498Z,26.17
2019-02-21T13:47:41.954Z,24.53
2019-02-21T13:50:13.235Z,23.93
2019-02-21T13:52:41.747Z,23.93
2019-02-21T13:55:10.305Z,24.97
2019-02-21T13:57:38.788Z,25.73
2019-02-21T14:00:10.557Z,26.20
2019-02-21T14:02:39.076Z,26.70
2019-02-21T14:05:07.810Z,25.90
2019-02-21T14:07:37.371Z,25.20
2019-02-21T14:10:11.296Z,25.17
2019-02-21T14:12:39.943Z,25.87
2019-02-21T14:15:11.629Z,25.90
2019-02-21T14:17:40.098Z,25.50
2019-02-21T14:20:09.244Z,25.40
2019-02-21T14:22:37.746Z,26.90
2019-02-21T14:25:08.960Z,26.67
2019-02-21T14:27:37.433Z,26.67
2019-02-21T14:30:09.071Z,25.67
2019-02-21T14:32:37.542Z,26.63
2019-02-21T14:35:09.158Z,27.13
2019-02-21T14:37:37.694Z,42.87
2019-02-21T14:40:09.099Z,27.50
2019-02-21T14:42:37.565Z,29.47
2019-02-21T14:45:12.152Z,27.93
2019-02-21T14:47:39.772Z,25.97
2019-02-21T14:50:10.477Z,31.57
2019-02-21T14:52:38.976Z,31.97
2019-02-21T14:55:13.737Z,31.77
2019-02-21T14:57:42.230Z,31.77
2019-02-21T15:00:19.259Z,39.20
2019-02-21T15:02:47.723Z,39.47
2019-02-21T15:05:16.187Z,29.70
2019-02-21T15:07:44.722Z,30.67
2019-02-21T15:10:13.357Z,35.73
2019-02-21T15:12:43.445Z,35.40
2019-02-21T15:15:27.702Z,30.80
2019-02-21T15:18:06.964Z,34.10
2019-02-21T15:20:36.282Z,32.00
2019-02-21T15:22:56.871Z,34.20
2019-02-21T15:25:25.907Z,29.80
2019-02-21T15:27:54.554Z,32.07
2019-02-21T15:30:25.998Z,33.38
2019-02-21T15:32:54.587Z,35.40
2019-02-21T15:35:23.058Z,33.47
2019-02-21T15:37:51.925Z,32.63
2019-02-21T15:40:20.488Z,37.47
2019-02-21T15:42:49.062Z,37.73
2019-02-21T15:45:26.502Z,32.73
2019-02-21T15:47:55.024Z,32.20
2019-02-21T15:50:26.222Z,33.77
2019-02-21T15:52:56.356Z,31.47
2019-02-21T15:55:24.824Z,33.93
2019-02-21T15:58:03.285Z,33.10
2019-02-21T16:00:24.567Z,35.47
2019-02-21T16:02:53.037Z,35.33
2019-02-21T16:05:21.500Z,34.17
2019-02-21T16:07:49.990Z,34.67
2019-02-21T16:10:21.646Z,33.30
2019-02-21T16:12:50.962Z,34.53
2019-02-21T16:15:19.749Z,38.00
2019-02-21T16:17:48.262Z,34.20
2019-02-21T16:20:18.333Z,38.67
2019-02-21T16:22:46.829Z,36.57
2019-02-21T16:25:18.068Z,34.90
2019-02-21T16:27:46.525Z,36.00
2019-02-21T16:30:15.307Z,34.70
2019-02-21T16:32:43.800Z,35.57
2019-02-21T16:35:13.899Z,36.67
2019-02-21T16:37:42.400Z,37.00
2019-02-21T16:40:17.076Z,35.50
2019-02-21T16:42:45.545Z,40.43
2019-02-21T16:45:15.972Z,36.40
2019-02-21T16:47:44.519Z,34.80
2019-02-21T16:50:14.324Z,34.53
2019-02-21T16:52:43.013Z,33.90
2019-02-21T16:55:19.345Z,32.77
2019-02-21T16:57:47.848Z,38.07
2019-02-21T17:00:20.428Z,32.00
2019-02-21T17:02:49.041Z,33.57
2019-02-21T17:05:17.646Z,36.77
2019-02-21T17:07:46.096Z,36.03
2019-02-21T17:10:15.814Z,33.30
2019-02-21T17:12:44.312Z,35.27
2019-02-21T17:15:14.899Z,35.80
2019-02-21T17:17:43.499Z,29.70
2019-02-21T17:20:17.360Z,33.53
2019-02-21T17:22:45.816Z,37.43
2019-02-21T17:25:15.421Z,34.10
2019-02-21T17:27:47.754Z,34.47
2019-02-21T17:30:17.355Z,30.40
2019-02-21T17:32:45.876Z,36.43
2019-02-21T17:35:14.798Z,34.30
2019-02-21T17:37:43.327Z,31.37
2019-02-21T17:40:14.749Z,34.70
2019-02-21T17:42:43.596Z,32.30
2019-02-21T17:45:13.384Z,30.63
2019-02-21T17:47:41.882Z,25.80
2019-02-21T17:50:12.422Z,33.83
2019-02-21T17:52:40.873Z,31.30
2019-02-21T17:55:10.899Z,30.60
2019-02-21T17:57:39.457Z,39.03
2019-02-21T18:00:11.099Z,33.10
2019-02-21T18:02:39.546Z,36.77
2019-02-21T18:05:09.689Z,39.83
2019-02-21T18:07:38.152Z,36.40
2019-02-21T18:10:10.046Z,36.90
2019-02-21T18:12:38.565Z,35.77
2019-02-21T18:15:09.200Z,32.37
2019-02-21T18:17:37.677Z,34.70
2019-02-21T18:20:08.812Z,34.10
2019-02-21T18:22:37.502Z,33.77
2019-02-21T18:25:11.995Z,35.23
2019-02-21T18:27:40.496Z,32.10
2019-02-21T18:30:16.794Z,29.00
2019-02-21T18:32:45.260Z,33.50
2019-02-21T18:35:13.857Z,32.90
2019-02-21T18:37:47.494Z,28.13
2019-02-21T18:40:20.633Z,29.60
2019-02-21T18:42:48.247Z,24.53
2019-02-21T18:45:17.722Z,24.93
2019-02-21T18:47:46.240Z,26.87
2019-02-21T18:50:15.167Z,23.40
2019-02-21T18:52:43.730Z,27.40
2019-02-21T18:55:12.419Z,29.17
2019-02-21T18:57:40.876Z,25.03
2019-02-21T19:00:14.765Z,27.87
2019-02-21T19:02:43.284Z,23.20
2019-02-21T19:05:11.730Z,23.10
2019-02-21T19:07:40.186Z,25.37
2019-02-21T19:10:20.772Z,25.30
2019-02-21T19:12:49.231Z,25.40
2019-02-21T19:15:21.391Z,26.70
2019-02-21T19:17:49.961Z,22.83
2019-02-21T19:20:20.392Z,27.83
2019-02-21T19:22:48.927Z,25.13
2019-02-21T19:25:17.427Z,24.70
2019-02-21T19:27:45.888Z,26.77
2019-02-21T19:30:17.527Z,25.00
2019-02-21T19:32:46.037Z,22.20
2019-02-21T19:35:14.509Z,23.17
2019-02-21T19:37:47.731Z,21.80
2019-02-21T19:40:16.419Z,22.27
2019-02-21T19:42:44.885Z,19.97
2019-02-21T19:45:13.341Z,22.03
2019-02-21T19:47:42.024Z,21.53
2019-02-21T19:50:10.564Z,21.13
2019-02-21T19:52:39.025Z,17.40
2019-02-21T19:55:09.680Z,20.67
2019-02-21T19:57:38.130Z,20.93
2019-02-21T20:00:16.415Z,19.37
2019-02-21T20:02:44.881Z,19.97
2019-02-21T20:05:13.338Z,19.03
2019-02-21T20:07:41.819Z,17.40
2019-02-21T20:10:10.343Z,18.20
2019-02-21T20:12:47.898Z,20.00
2019-02-21T20:15:16.511Z,16.70
2019-02-21T20:17:44.973Z,16.57
2019-02-21T20:20:21.872Z,15.53
2019-02-21T20:22:50.336Z,16.40
2019-02-21T20:25:18.799Z,18.83
2019-02-21T20:27:47.467Z,17.60
2019-02-21T20:30:17.191Z,19.23
2019-02-21T20:32:45.659Z,17.93
2019-02-21T20:35:14.168Z,18.80
2019-02-21T20:37:42.665Z,20.87
2019-02-21T20:40:12.272Z,19.23
2019-02-21T20:42:41.594Z,19.23
2019-02-21T20:45:13.924Z,19.33
2019-02-21T20:47:42.377Z,17.43
2019-02-21T20:50:12.476Z,20.70
2019-02-21T20:52:43.871Z,21.57
2019-02-21T20:55:12.520Z,20.20
2019-02-21T20:57:41.063Z,18.97
2019-02-21T21:00:14.872Z,14.50
2019-02-21T21:02:43.473Z,13.70
2019-02-21T21:05:12.060Z,16.47
2019-02-21T21:07:40.509Z,13.37
2019-02-21T21:10:16.911Z,13.07
2019-02-21T21:12:45.440Z,15.43
2019-02-21T21:15:14.747Z,14.63
2019-02-21T21:17:43.314Z,15.07
2019-02-21T21:20:16.979Z,14.50
2019-02-21T21:22:43.805Z,15.50
2019-02-21T21:25:15.806Z,20.13
2019-02-21T21:27:44.272Z,20.73
2019-02-21T21:30:17.667Z,19.27
2019-02-21T21:32:46.178Z,22.20
2019-02-21T21:35:14.654Z,20.47
2019-02-21T21:37:43.179Z,23.87
2019-02-21T21:40:14.503Z,21.50
2019-02-21T21:42:42.975Z,20.73
2019-02-21T21:45:14.369Z,18.80
2019-02-21T21:47:42.859Z,21.60
2019-02-21T21:50:13.966Z,19.00
2019-02-21T21:52:43.868Z,18.03
2019-02-21T21:55:12.360Z,20.20
2019-02-21T21:57:40.832Z,21.50
2019-02-21T22:00:17.895Z,18.47
2019-02-21T22:02:45.469Z,19.57
2019-02-21T22:05:13.927Z,19.10
2019-02-21T22:07:42.377Z,17.20
2019-02-21T22:10:12.715Z,18.27
2019-02-21T22:12:41.176Z,16.83
2019-02-21T22:15:12.739Z,16.80
2019-02-21T22:17:42.185Z,10.73
2019-02-21T22:20:10.944Z,13.90
2019-02-21T22:22:39.399Z,11.70
2019-02-21T22:25:10.440Z,12.83
2019-02-21T22:27:38.915Z,10.73
2019-02-21T22:30:16.462Z,10.33
2019-02-21T22:32:44.929Z,11.63
2019-02-21T22:35:13.390Z,12.10
2019-02-21T22:37:41.872Z,12.10
2019-02-21T22:40:12.766Z,12.73
2019-02-21T22:42:41.258Z,12.20
2019-02-21T22:45:10.377Z,13.10
2019-02-21T22:47:38.849Z,10.83
2019-02-21T22:50:19.091Z,11.00
2019-02-21T22:52:47.589Z,12.60
2019-02-21T22:55:16.394Z,12.77
2019-02-21T22:57:44.876Z,11.87
2019-02-21T23:00:54.392Z,13.00
2019-02-21T23:03:25.692Z,11.43
2019-02-21T23:06:12.669Z,10.30
2019-02-21T23:08:45.130Z,11.40
2019-02-21T23:11:13.749Z,9.47
2019-02-21T23:13:42.208Z,7.30
2019-02-21T23:16:10.698Z,9.73
2019-02-21T23:18:39.234Z,10.73
2019-02-21T23:21:07.698Z,6.90
2019-02-21T23:23:36.193Z,9.50
2019-02-21T23:26:04.658Z,10.43
2019-02-21T23:28:33.126Z,10.50
2019-02-21T23:31:01.620Z,11.90
2019-02-21T23:33:31.436Z,11.63
2019-02-21T23:36:00.076Z,10.30
2019-02-21T23:38:28.559Z,11.30
2019-02-21T23:40:57.031Z,13.00
2019-02-21T23:43:25.477Z,10.77
2019-02-21T23:45:53.991Z,11.37
2019-02-21T23:48:22.447Z,9.73
2019-02-21T23:50:50.919Z,12.40
2019-02-21T23:53:19.418Z,11.73
2019-02-21T23:55:48.050Z,8.47
2019-02-21T23:58:16.526Z,13.57
